sensor_id;sensor_type;location;lat;lon;timestamp;temperature;humidity
56512;DHT22;42408;53.238;5.686;2022-12-07T00:03:33;4.00;99.90
56512;DHT22;42408;53.238;5.686;2022-12-07T00:05:59;4.00;99.90
56512;DHT22;42408;53.238;5.686;2022-12-07T00:08:24;4.00;99.90
56512;DHT22;42408;53.238;5.686;2022-12-07T00:10:50;4.00;99.90
56512;DHT22;42408;53.238;5.686;2022-12-07T00:13:15;4.00;99.90
56512;DHT22;42408;53.238;5.686;2022-12-07T00:15:41;4.10;99.90
56512;DHT22;42408;53.238;5.686;2022-12-07T00:18:06;5.20;99.90
56512;DHT22;42408;53.238;5.686;2022-12-07T00:20:32;4.20;99.90
56512;DHT22;42408;53.238;5.686;2022-12-07T00:22:58;5.00;99.90
56512;DHT22;42408;53.238;5.686;2022-12-07T00:25:24;4.40;99.90
56512;DHT22;42408;53.238;5.686;2022-12-07T00:27:49;4.50;99.90
56512;DHT22;42408;53.238;5.686;2022-12-07T00:30:15;4.60;99.90
56512;DHT22;42408;53.238;5.686;2022-12-07T00:32:41;4.60;99.90
56512;DHT22;42408;53.238;5.686;2022-12-07T00:35:06;4.60;99.90
56512;DHT22;42408;53.238;5.686;2022-12-07T00:37:32;4.60;99.90
56512;DHT22;42408;53.238;5.686;2022-12-07T00:39:57;4.60;99.90
56512;DHT22;42408;53.238;5.686;2022-12-07T00:42:23;4.60;99.90
56512;DHT22;42408;53.238;5.686;2022-12-07T00:44:48;5.40;99.90
56512;DHT22;42408;53.238;5.686;2022-12-07T00:47:14;4.60;99.90
56512;DHT22;42408;53.238;5.686;2022-12-07T00:49:39;4.60;99.90
56512;DHT22;42408;53.238;5.686;2022-12-07T00:52:05;4.50;99.90
56512;DHT22;42408;53.238;5.686;2022-12-07T00:54:30;4.50;99.90
56512;DHT22;42408;53.238;5.686;2022-12-07T00:56:56;4.70;99.90
56512;DHT22;42408;53.238;5.686;2022-12-07T00:59:21;5.30;99.90
56512;DHT22;42408;53.238;5.686;2022-12-07T01:01:47;4.20;99.90
56512;DHT22;42408;53.238;5.686;2022-12-07T01:04:12;4.10;99.90
56512;DHT22;42408;53.238;5.686;2022-12-07T01:06:38;4.20;99.90
56512;DHT22;42408;53.238;5.686;2022-12-07T01:09:03;5.10;99.90
56512;DHT22;42408;53.238;5.686;2022-12-07T01:11:30;4.30;99.90
56512;DHT22;42408;53.238;5.686;2022-12-07T01:13:56;4.30;99.90
56512;DHT22;42408;53.238;5.686;2022-12-07T01:16:23;4.90;99.90
56512;DHT22;42408;53.238;5.686;2022-12-07T01:18:50;4.30;99.90
56512;DHT22;42408;53.238;5.686;2022-12-07T01:21:17;4.40;99.90
56512;DHT22;42408;53.238;5.686;2022-12-07T01:23:43;4.40;99.90
56512;DHT22;42408;53.238;5.686;2022-12-07T01:26:13;4.50;99.90
56512;DHT22;42408;53.238;5.686;2022-12-07T01:28:38;4.30;99.90
56512;DHT22;42408;53.238;5.686;2022-12-07T01:31:05;4.30;99.90
56512;DHT22;42408;53.238;5.686;2022-12-07T01:33:32;4.30;99.90
56512;DHT22;42408;53.238;5.686;2022-12-07T01:36:02;4.30;99.90
56512;DHT22;42408;53.238;5.686;2022-12-07T01:38:28;4.30;99.90
56512;DHT22;42408;53.238;5.686;2022-12-07T01:40:54;4.40;99.90
56512;DHT22;42408;53.238;5.686;2022-12-07T01:43:20;4.40;99.90
56512;DHT22;42408;53.238;5.686;2022-12-07T01:45:46;4.40;99.90
56512;DHT22;42408;53.238;5.686;2022-12-07T01:48:12;5.50;99.90
56512;DHT22;42408;53.238;5.686;2022-12-07T01:50:39;4.50;99.90
56512;DHT22;42408;53.238;5.686;2022-12-07T01:53:06;4.50;99.90
56512;DHT22;42408;53.238;5.686;2022-12-07T01:55:34;4.50;99.90
56512;DHT22;42408;53.238;5.686;2022-12-07T01:58:00;4.50;99.90
56512;DHT22;42408;53.238;5.686;2022-12-07T02:00:26;4.50;99.90
56512;DHT22;42408;53.238;5.686;2022-12-07T02:05:17;5.40;99.90
56512;DHT22;42408;53.238;5.686;2022-12-07T02:07:43;4.40;99.90
56512;DHT22;42408;53.238;5.686;2022-12-07T02:10:17;4.30;99.90
56512;DHT22;42408;53.238;5.686;2022-12-07T02:12:43;4.30;99.90
56512;DHT22;42408;53.238;5.686;2022-12-07T02:15:10;4.30;99.90
56512;DHT22;42408;53.238;5.686;2022-12-07T02:17:44;4.30;99.90
56512;DHT22;42408;53.238;5.686;2022-12-07T02:20:13;4.20;99.90
56512;DHT22;42408;53.238;5.686;2022-12-07T02:30:46;4.40;99.90
56512;DHT22;42408;53.238;5.686;2022-12-07T02:33:14;4.50;99.90
56512;DHT22;42408;53.238;5.686;2022-12-07T02:40:51;4.70;99.90
56512;DHT22;42408;53.238;5.686;2022-12-07T02:43:20;4.70;99.90
56512;DHT22;42408;53.238;5.686;2022-12-07T02:45:48;4.80;99.90
56512;DHT22;42408;53.238;5.686;2022-12-07T02:48:16;4.80;99.90
56512;DHT22;42408;53.238;5.686;2022-12-07T02:50:48;4.80;99.90
56512;DHT22;42408;53.238;5.686;2022-12-07T02:55:58;4.80;99.90
56512;DHT22;42408;53.238;5.686;2022-12-07T03:01:03;6.00;99.90
56512;DHT22;42408;53.238;5.686;2022-12-07T03:03:29;4.80;99.90
56512;DHT22;42408;53.238;5.686;2022-12-07T03:11:08;4.80;99.90
56512;DHT22;42408;53.238;5.686;2022-12-07T03:16:12;4.80;99.90
56512;DHT22;42408;53.238;5.686;2022-12-07T03:18:43;4.80;99.90
56512;DHT22;42408;53.238;5.686;2022-12-07T03:21:12;4.80;99.90
56512;DHT22;42408;53.238;5.686;2022-12-07T03:23:38;4.80;99.90
56512;DHT22;42408;53.238;5.686;2022-12-07T03:26:05;4.80;99.90
56512;DHT22;42408;53.238;5.686;2022-12-07T03:28:35;4.80;99.90
56512;DHT22;42408;53.238;5.686;2022-12-07T03:31:15;4.80;99.90
56512;DHT22;42408;53.238;5.686;2022-12-07T03:33:46;4.80;99.90
56512;DHT22;42408;53.238;5.686;2022-12-07T03:36:37;4.90;99.90
56512;DHT22;42408;53.238;5.686;2022-12-07T03:39:03;4.80;99.90
56512;DHT22;42408;53.238;5.686;2022-12-07T03:41:31;5.20;99.90
56512;DHT22;42408;53.238;5.686;2022-12-07T03:43:58;5.30;99.90
56512;DHT22;42408;53.238;5.686;2022-12-07T03:51:36;4.90;99.90
56512;DHT22;42408;53.238;5.686;2022-12-07T03:54:09;4.90;99.90
56512;DHT22;42408;53.238;5.686;2022-12-07T03:56:35;4.80;99.90
56512;DHT22;42408;53.238;5.686;2022-12-07T03:59:01;4.80;99.90
56512;DHT22;42408;53.238;5.686;2022-12-07T04:01:27;4.80;99.90
56512;DHT22;42408;53.238;5.686;2022-12-07T04:03:52;4.90;99.90
56512;DHT22;42408;53.238;5.686;2022-12-07T04:06:18;4.90;99.90
56512;DHT22;42408;53.238;5.686;2022-12-07T04:08:44;4.90;99.90
56512;DHT22;42408;53.238;5.686;2022-12-07T04:11:09;4.80;99.90
56512;DHT22;42408;53.238;5.686;2022-12-07T04:13:35;4.80;99.90
56512;DHT22;42408;53.238;5.686;2022-12-07T04:16:20;4.80;99.90
56512;DHT22;42408;53.238;5.686;2022-12-07T04:18:46;5.10;99.90
56512;DHT22;42408;53.238;5.686;2022-12-07T04:21:11;4.70;99.90
56512;DHT22;42408;53.238;5.686;2022-12-07T04:23:37;4.70;99.90
56512;DHT22;42408;53.238;5.686;2022-12-07T04:26:02;4.60;99.90
56512;DHT22;42408;53.238;5.686;2022-12-07T04:28:28;4.60;99.90
56512;DHT22;42408;53.238;5.686;2022-12-07T04:30:53;5.00;99.90
56512;DHT22;42408;53.238;5.686;2022-12-07T04:33:19;5.00;99.90
56512;DHT22;42408;53.238;5.686;2022-12-07T04:35:44;4.80;99.90
56512;DHT22;42408;53.238;5.686;2022-12-07T04:38:10;4.50;99.90
56512;DHT22;42408;53.238;5.686;2022-12-07T04:40:35;4.50;99.90
56512;DHT22;42408;53.238;5.686;2022-12-07T04:43:01;4.50;99.90
56512;DHT22;42408;53.238;5.686;2022-12-07T04:45:26;4.50;99.90
56512;DHT22;42408;53.238;5.686;2022-12-07T04:47:52;5.40;99.90
56512;DHT22;42408;53.238;5.686;2022-12-07T04:50:17;4.60;99.90
56512;DHT22;42408;53.238;5.686;2022-12-07T04:52:43;4.70;99.90
56512;DHT22;42408;53.238;5.686;2022-12-07T04:55:08;4.90;99.90
56512;DHT22;42408;53.238;5.686;2022-12-07T04:57:34;5.00;99.90
56512;DHT22;42408;53.238;5.686;2022-12-07T04:59:59;4.70;99.90
56512;DHT22;42408;53.238;5.686;2022-12-07T05:02:25;4.70;99.90
56512;DHT22;42408;53.238;5.686;2022-12-07T05:04:51;4.70;99.90
56512;DHT22;42408;53.238;5.686;2022-12-07T05:07:16;4.70;99.90
56512;DHT22;42408;53.238;5.686;2022-12-07T05:09:42;4.60;99.90
56512;DHT22;42408;53.238;5.686;2022-12-07T05:12:07;4.60;99.90
56512;DHT22;42408;53.238;5.686;2022-12-07T05:14:33;4.60;99.90
56512;DHT22;42408;53.238;5.686;2022-12-07T05:16:58;5.60;99.90
56512;DHT22;42408;53.238;5.686;2022-12-07T05:19:24;5.60;99.90
56512;DHT22;42408;53.238;5.686;2022-12-07T05:21:49;5.30;99.90
56512;DHT22;42408;53.238;5.686;2022-12-07T05:24:15;4.50;99.90
56512;DHT22;42408;53.238;5.686;2022-12-07T05:26:41;4.50;99.90
56512;DHT22;42408;53.238;5.686;2022-12-07T05:29:07;4.50;99.90
56512;DHT22;42408;53.238;5.686;2022-12-07T05:31:35;4.50;99.90
56512;DHT22;42408;53.238;5.686;2022-12-07T05:34:01;4.40;99.90
56512;DHT22;42408;53.238;5.686;2022-12-07T05:36:26;4.30;99.90
56512;DHT22;42408;53.238;5.686;2022-12-07T05:38:53;4.30;99.90
56512;DHT22;42408;53.238;5.686;2022-12-07T05:41:19;4.30;99.90
56512;DHT22;42408;53.238;5.686;2022-12-07T05:44:03;4.30;99.90
56512;DHT22;42408;53.238;5.686;2022-12-07T05:46:29;5.00;99.90
56512;DHT22;42408;53.238;5.686;2022-12-07T05:48:55;4.20;99.90
56512;DHT22;42408;53.238;5.686;2022-12-07T05:51:20;4.90;99.90
56512;DHT22;42408;53.238;5.686;2022-12-07T05:53:46;4.20;99.90
56512;DHT22;42408;53.238;5.686;2022-12-07T05:56:11;4.20;99.90
56512;DHT22;42408;53.238;5.686;2022-12-07T05:58:37;4.20;99.90
56512;DHT22;42408;53.238;5.686;2022-12-07T06:01:21;4.40;99.90
56512;DHT22;42408;53.238;5.686;2022-12-07T06:03:47;4.10;99.90
56512;DHT22;42408;53.238;5.686;2022-12-07T06:06:12;5.10;99.90
56512;DHT22;42408;53.238;5.686;2022-12-07T06:08:38;5.00;99.90
56512;DHT22;42408;53.238;5.686;2022-12-07T06:11:04;4.10;99.90
56512;DHT22;42408;53.238;5.686;2022-12-07T06:13:47;4.00;99.90
56512;DHT22;42408;53.238;5.686;2022-12-07T06:16:13;5.00;99.90
56512;DHT22;42408;53.238;5.686;2022-12-07T06:18:38;3.90;99.90
56512;DHT22;42408;53.238;5.686;2022-12-07T06:21:04;3.90;99.90
56512;DHT22;42408;53.238;5.686;2022-12-07T06:23:30;3.80;99.90
56512;DHT22;42408;53.238;5.686;2022-12-07T06:25:55;3.80;99.90
56512;DHT22;42408;53.238;5.686;2022-12-07T06:28:21;3.70;99.90
56512;DHT22;42408;53.238;5.686;2022-12-07T06:30:46;4.20;99.90
56512;DHT22;42408;53.238;5.686;2022-12-07T06:33:12;3.60;99.90
56512;DHT22;42408;53.238;5.686;2022-12-07T06:35:37;4.00;99.90
56512;DHT22;42408;53.238;5.686;2022-12-07T06:38:03;3.70;99.90
56512;DHT22;42408;53.238;5.686;2022-12-07T06:40:28;3.70;99.90
56512;DHT22;42408;53.238;5.686;2022-12-07T06:42:54;3.70;99.90
56512;DHT22;42408;53.238;5.686;2022-12-07T06:45:20;3.80;99.90
56512;DHT22;42408;53.238;5.686;2022-12-07T06:47:45;3.80;99.90
56512;DHT22;42408;53.238;5.686;2022-12-07T06:50:11;3.80;99.90
56512;DHT22;42408;53.238;5.686;2022-12-07T06:52:36;3.90;99.90
56512;DHT22;42408;53.238;5.686;2022-12-07T06:55:02;4.40;99.90
56512;DHT22;42408;53.238;5.686;2022-12-07T06:57:28;3.90;99.90
56512;DHT22;42408;53.238;5.686;2022-12-07T06:59:53;3.90;99.90
56512;DHT22;42408;53.238;5.686;2022-12-07T07:02:19;5.10;99.90
56512;DHT22;42408;53.238;5.686;2022-12-07T07:04:44;4.00;99.90
56512;DHT22;42408;53.238;5.686;2022-12-07T07:07:10;4.10;99.90
56512;DHT22;42408;53.238;5.686;2022-12-07T07:09:35;4.10;99.90
56512;DHT22;42408;53.238;5.686;2022-12-07T07:12:01;4.20;99.90
56512;DHT22;42408;53.238;5.686;2022-12-07T07:14:26;4.80;99.90
56512;DHT22;42408;53.238;5.686;2022-12-07T07:16:52;5.70;99.90
56512;DHT22;42408;53.238;5.686;2022-12-07T07:19:18;5.30;99.90
56512;DHT22;42408;53.238;5.686;2022-12-07T07:21:43;4.40;99.90
56512;DHT22;42408;53.238;5.686;2022-12-07T07:24:09;4.30;99.90
56512;DHT22;42408;53.238;5.686;2022-12-07T07:26:34;5.10;99.90
56512;DHT22;42408;53.238;5.686;2022-12-07T07:29:00;4.20;99.90
56512;DHT22;42408;53.238;5.686;2022-12-07T07:31:25;5.40;99.90
56512;DHT22;42408;53.238;5.686;2022-12-07T07:33:51;4.80;99.90
56512;DHT22;42408;53.238;5.686;2022-12-07T07:36:16;4.30;99.90
56512;DHT22;42408;53.238;5.686;2022-12-07T07:38:42;5.40;99.90
56512;DHT22;42408;53.238;5.686;2022-12-07T07:41:07;4.10;99.90
56512;DHT22;42408;53.238;5.686;2022-12-07T07:43:33;4.10;99.90
56512;DHT22;42408;53.238;5.686;2022-12-07T07:45:58;4.70;99.90
56512;DHT22;42408;53.238;5.686;2022-12-07T07:48:24;4.10;99.90
56512;DHT22;42408;53.238;5.686;2022-12-07T07:50:50;4.10;99.90
56512;DHT22;42408;53.238;5.686;2022-12-07T07:53:16;4.10;99.90
56512;DHT22;42408;53.238;5.686;2022-12-07T07:55:41;4.10;99.90
56512;DHT22;42408;53.238;5.686;2022-12-07T07:58:14;5.20;99.90
56512;DHT22;42408;53.238;5.686;2022-12-07T08:00:40;4.10;99.90
56512;DHT22;42408;53.238;5.686;2022-12-07T08:03:05;4.20;99.90
56512;DHT22;42408;53.238;5.686;2022-12-07T08:05:31;4.30;99.90
56512;DHT22;42408;53.238;5.686;2022-12-07T08:07:57;5.90;99.90
56512;DHT22;42408;53.238;5.686;2022-12-07T08:10:22;5.30;99.90
56512;DHT22;42408;53.238;5.686;2022-12-07T08:12:48;4.40;99.90
56512;DHT22;42408;53.238;5.686;2022-12-07T08:15:32;4.40;99.90
56512;DHT22;42408;53.238;5.686;2022-12-07T08:17:58;4.40;99.90
56512;DHT22;42408;53.238;5.686;2022-12-07T08:20:24;5.30;99.90
56512;DHT22;42408;53.238;5.686;2022-12-07T08:22:49;4.30;99.90
56512;DHT22;42408;53.238;5.686;2022-12-07T08:25:15;4.30;99.90
56512;DHT22;42408;53.238;5.686;2022-12-07T08:27:40;4.30;99.90
56512;DHT22;42408;53.238;5.686;2022-12-07T08:30:06;4.30;99.90
56512;DHT22;42408;53.238;5.686;2022-12-07T08:32:32;4.30;99.90
56512;DHT22;42408;53.238;5.686;2022-12-07T08:34:57;4.20;99.90
56512;DHT22;42408;53.238;5.686;2022-12-07T08:37:23;4.20;99.90
56512;DHT22;42408;53.238;5.686;2022-12-07T08:39:48;4.20;99.90
56512;DHT22;42408;53.238;5.686;2022-12-07T08:42:14;4.10;99.90
56512;DHT22;42408;53.238;5.686;2022-12-07T08:44:40;4.10;99.90
56512;DHT22;42408;53.238;5.686;2022-12-07T08:47:05;5.00;99.90
56512;DHT22;42408;53.238;5.686;2022-12-07T08:49:39;4.00;99.90
56512;DHT22;42408;53.238;5.686;2022-12-07T08:52:06;4.00;99.90
56512;DHT22;42408;53.238;5.686;2022-12-07T08:54:33;4.90;99.90
56512;DHT22;42408;53.238;5.686;2022-12-07T08:56:59;4.00;99.90
56512;DHT22;42408;53.238;5.686;2022-12-07T08:59:25;4.00;99.90
56512;DHT22;42408;53.238;5.686;2022-12-07T09:01:51;4.00;99.90
56512;DHT22;42408;53.238;5.686;2022-12-07T09:04:17;4.00;99.90
56512;DHT22;42408;53.238;5.686;2022-12-07T09:06:42;4.80;99.90
56512;DHT22;42408;53.238;5.686;2022-12-07T09:09:08;4.20;99.90
56512;DHT22;42408;53.238;5.686;2022-12-07T09:11:33;4.30;99.90
56512;DHT22;42408;53.238;5.686;2022-12-07T09:13:59;5.10;99.90
56512;DHT22;42408;53.238;5.686;2022-12-07T09:16:24;4.60;99.90
56512;DHT22;42408;53.238;5.686;2022-12-07T09:18:50;4.70;99.90
56512;DHT22;42408;53.238;5.686;2022-12-07T09:21:15;5.40;99.90
56512;DHT22;42408;53.238;5.686;2022-12-07T09:23:41;4.90;99.90
56512;DHT22;42408;53.238;5.686;2022-12-07T09:26:07;5.00;99.90
56512;DHT22;42408;53.238;5.686;2022-12-07T09:28:33;5.00;99.90
56512;DHT22;42408;53.238;5.686;2022-12-07T09:30:59;5.00;99.90
56512;DHT22;42408;53.238;5.686;2022-12-07T09:33:25;5.00;99.90
56512;DHT22;42408;53.238;5.686;2022-12-07T09:35:51;5.10;99.90
56512;DHT22;42408;53.238;5.686;2022-12-07T09:38:17;5.00;99.90
56512;DHT22;42408;53.238;5.686;2022-12-07T09:40:42;5.00;99.90
56512;DHT22;42408;53.238;5.686;2022-12-07T09:43:14;5.00;99.90
56512;DHT22;42408;53.238;5.686;2022-12-07T09:45:40;5.00;99.90
56512;DHT22;42408;53.238;5.686;2022-12-07T09:48:11;5.10;99.90
56512;DHT22;42408;53.238;5.686;2022-12-07T09:50:39;5.20;99.90
56512;DHT22;42408;53.238;5.686;2022-12-07T09:53:07;5.70;99.90
56512;DHT22;42408;53.238;5.686;2022-12-07T09:55:33;5.20;99.90
56512;DHT22;42408;53.238;5.686;2022-12-07T09:57:59;5.30;99.90
56512;DHT22;42408;53.238;5.686;2022-12-07T10:00:24;5.30;99.90
56512;DHT22;42408;53.238;5.686;2022-12-07T10:05:23;5.40;99.90
56512;DHT22;42408;53.238;5.686;2022-12-07T10:07:49;5.40;99.90
56512;DHT22;42408;53.238;5.686;2022-12-07T10:10:17;5.50;99.90
56512;DHT22;42408;53.238;5.686;2022-12-07T10:13:00;6.40;99.90
56512;DHT22;42408;53.238;5.686;2022-12-07T10:15:40;5.70;99.90
56512;DHT22;42408;53.238;5.686;2022-12-07T10:18:06;5.80;99.90
56512;DHT22;42408;53.238;5.686;2022-12-07T10:20:41;5.80;99.90
56512;DHT22;42408;53.238;5.686;2022-12-07T10:23:12;5.80;99.90
56512;DHT22;42408;53.238;5.686;2022-12-07T10:25:38;5.70;99.90
56512;DHT22;42408;53.238;5.686;2022-12-07T10:28:16;5.70;99.90
56512;DHT22;42408;53.238;5.686;2022-12-07T10:30:58;5.80;99.90
56512;DHT22;42408;53.238;5.686;2022-12-07T10:35:56;5.70;99.90
56512;DHT22;42408;53.238;5.686;2022-12-07T10:38:21;5.80;99.90
56512;DHT22;42408;53.238;5.686;2022-12-07T10:40:48;6.60;99.90
56512;DHT22;42408;53.238;5.686;2022-12-07T10:43:27;5.80;99.90
56512;DHT22;42408;53.238;5.686;2022-12-07T11:03:30;5.90;99.90
56512;DHT22;42408;53.238;5.686;2022-12-07T11:11:04;6.00;99.90
56512;DHT22;42408;53.238;5.686;2022-12-07T11:20:58;6.30;99.90
56512;DHT22;42408;53.238;5.686;2022-12-07T11:31:10;6.20;99.90
56512;DHT22;42408;53.238;5.686;2022-12-07T11:33:47;6.20;99.90
56512;DHT22;42408;53.238;5.686;2022-12-07T11:39:08;6.30;99.90
56512;DHT22;42408;53.238;5.686;2022-12-07T11:41:36;6.30;99.90
56512;DHT22;42408;53.238;5.686;2022-12-07T11:49:14;6.90;99.90
56512;DHT22;42408;53.238;5.686;2022-12-07T11:51:42;6.20;99.90
56512;DHT22;42408;53.238;5.686;2022-12-07T11:54:12;6.20;99.90
56512;DHT22;42408;53.238;5.686;2022-12-07T11:56:40;6.20;99.90
56512;DHT22;42408;53.238;5.686;2022-12-07T11:59:29;6.30;99.90
56512;DHT22;42408;53.238;5.686;2022-12-07T12:02:03;6.30;99.90
56512;DHT22;42408;53.238;5.686;2022-12-07T12:04:46;6.30;99.90
56512;DHT22;42408;53.238;5.686;2022-12-07T12:07:15;6.40;99.90
56512;DHT22;42408;53.238;5.686;2022-12-07T12:09:48;6.40;99.90
56512;DHT22;42408;53.238;5.686;2022-12-07T12:22:46;6.20;99.90
56512;DHT22;42408;53.238;5.686;2022-12-07T12:25:24;6.20;99.90
56512;DHT22;42408;53.238;5.686;2022-12-07T12:27:50;6.20;99.90
56512;DHT22;42408;53.238;5.686;2022-12-07T12:30:25;6.20;99.90
56512;DHT22;42408;53.238;5.686;2022-12-07T12:32:51;6.20;99.90
56512;DHT22;42408;53.238;5.686;2022-12-07T12:37:52;6.30;99.90
56512;DHT22;42408;53.238;5.686;2022-12-07T12:48:02;6.30;99.90
56512;DHT22;42408;53.238;5.686;2022-12-07T12:50:34;6.20;99.90
56512;DHT22;42408;53.238;5.686;2022-12-07T12:53:14;6.20;99.90
56512;DHT22;42408;53.238;5.686;2022-12-07T13:00:47;6.00;99.90
56512;DHT22;42408;53.238;5.686;2022-12-07T13:03:47;6.00;99.90
56512;DHT22;42408;53.238;5.686;2022-12-07T13:08:49;6.00;99.90
56512;DHT22;42408;53.238;5.686;2022-12-07T13:11:19;6.00;99.90
56512;DHT22;42408;53.238;5.686;2022-12-07T13:13:49;6.00;99.90
56512;DHT22;42408;53.238;5.686;2022-12-07T13:18:41;6.00;99.90
56512;DHT22;42408;53.238;5.686;2022-12-07T13:29:13;5.80;99.90
56512;DHT22;42408;53.238;5.686;2022-12-07T13:34:27;5.60;99.90
56512;DHT22;42408;53.238;5.686;2022-12-07T13:36:51;5.60;99.90
56512;DHT22;42408;53.238;5.686;2022-12-07T13:41:42;5.50;99.90
56512;DHT22;42408;53.238;5.686;2022-12-07T13:44:15;5.50;99.90
56512;DHT22;42408;53.238;5.686;2022-12-07T13:46:49;5.40;99.90
56512;DHT22;42408;53.238;5.686;2022-12-07T13:49:25;5.40;99.90
56512;DHT22;42408;53.238;5.686;2022-12-07T13:51:52;5.40;99.90
56512;DHT22;42408;53.238;5.686;2022-12-07T13:54:18;5.40;99.90
56512;DHT22;42408;53.238;5.686;2022-12-07T13:56:47;5.30;99.90
56512;DHT22;42408;53.238;5.686;2022-12-07T13:59:17;5.30;99.90
56512;DHT22;42408;53.238;5.686;2022-12-07T14:01:44;5.30;99.90
56512;DHT22;42408;53.238;5.686;2022-12-07T14:06:49;5.20;99.90
56512;DHT22;42408;53.238;5.686;2022-12-07T14:11:41;5.90;99.90
56512;DHT22;42408;53.238;5.686;2022-12-07T14:14:11;5.20;99.90
56512;DHT22;42408;53.238;5.686;2022-12-07T14:16:39;5.50;99.90
56512;DHT22;42408;53.238;5.686;2022-12-07T14:19:05;5.20;99.90
56512;DHT22;42408;53.238;5.686;2022-12-07T14:21:32;5.20;99.90
56512;DHT22;42408;53.238;5.686;2022-12-07T14:24:18;5.10;99.90
56512;DHT22;42408;53.238;5.686;2022-12-07T14:26:44;5.20;99.90
56512;DHT22;42408;53.238;5.686;2022-12-07T14:31:52;5.10;99.90
56512;DHT22;42408;53.238;5.686;2022-12-07T14:34:21;5.10;99.90
56512;DHT22;42408;53.238;5.686;2022-12-07T14:36:47;5.10;99.90
56512;DHT22;42408;53.238;5.686;2022-12-07T14:39:12;5.10;99.90
56512;DHT22;42408;53.238;5.686;2022-12-07T14:41:38;5.00;99.90
56512;DHT22;42408;53.238;5.686;2022-12-07T14:44:15;5.20;99.90
56512;DHT22;42408;53.238;5.686;2022-12-07T14:46:41;5.00;99.90
56512;DHT22;42408;53.238;5.686;2022-12-07T14:49:06;5.00;99.90
56512;DHT22;42408;53.238;5.686;2022-12-07T14:51:32;5.90;99.90
56512;DHT22;42408;53.238;5.686;2022-12-07T14:53:58;5.70;99.90
56512;DHT22;42408;53.238;5.686;2022-12-07T14:56:24;4.90;99.90
56512;DHT22;42408;53.238;5.686;2022-12-07T14:58:50;4.90;99.90
56512;DHT22;42408;53.238;5.686;2022-12-07T15:01:15;5.00;99.90
56512;DHT22;42408;53.238;5.686;2022-12-07T15:03:41;5.00;99.90
56512;DHT22;42408;53.238;5.686;2022-12-07T15:06:06;4.90;99.90
56512;DHT22;42408;53.238;5.686;2022-12-07T15:08:32;4.90;99.90
56512;DHT22;42408;53.238;5.686;2022-12-07T15:10:58;5.00;99.90
56512;DHT22;42408;53.238;5.686;2022-12-07T15:13:23;4.90;99.90
56512;DHT22;42408;53.238;5.686;2022-12-07T15:16:11;4.90;99.90
56512;DHT22;42408;53.238;5.686;2022-12-07T15:18:38;4.80;99.90
56512;DHT22;42408;53.238;5.686;2022-12-07T15:21:03;4.80;99.90
56512;DHT22;42408;53.238;5.686;2022-12-07T15:23:29;4.80;99.90
56512;DHT22;42408;53.238;5.686;2022-12-07T15:25:54;4.80;99.90
56512;DHT22;42408;53.238;5.686;2022-12-07T15:28:20;4.80;99.90
56512;DHT22;42408;53.238;5.686;2022-12-07T15:30:45;4.70;99.90
56512;DHT22;42408;53.238;5.686;2022-12-07T15:33:11;4.70;99.90
56512;DHT22;42408;53.238;5.686;2022-12-07T15:35:40;4.70;99.90
56512;DHT22;42408;53.238;5.686;2022-12-07T15:38:06;4.60;99.90
56512;DHT22;42408;53.238;5.686;2022-12-07T15:40:32;4.60;99.90
56512;DHT22;42408;53.238;5.686;2022-12-07T15:42:57;4.50;99.90
56512;DHT22;42408;53.238;5.686;2022-12-07T15:45:23;4.50;99.90
56512;DHT22;42408;53.238;5.686;2022-12-07T15:47:48;4.50;99.90
56512;DHT22;42408;53.238;5.686;2022-12-07T15:50:15;4.50;99.90
56512;DHT22;42408;53.238;5.686;2022-12-07T15:52:40;4.50;99.90
56512;DHT22;42408;53.238;5.686;2022-12-07T15:55:06;4.50;99.90
56512;DHT22;42408;53.238;5.686;2022-12-07T15:57:32;4.40;99.90
56512;DHT22;42408;53.238;5.686;2022-12-07T15:59:58;4.40;99.90
56512;DHT22;42408;53.238;5.686;2022-12-07T16:02:24;4.40;99.90
56512;DHT22;42408;53.238;5.686;2022-12-07T16:04:50;4.40;99.90
56512;DHT22;42408;53.238;5.686;2022-12-07T16:07:16;5.00;99.90
56512;DHT22;42408;53.238;5.686;2022-12-07T16:09:42;4.70;99.90
56512;DHT22;42408;53.238;5.686;2022-12-07T16:12:08;4.30;99.90
56512;DHT22;42408;53.238;5.686;2022-12-07T16:14:34;5.10;99.90
56512;DHT22;42408;53.238;5.686;2022-12-07T16:16:59;4.30;99.90
56512;DHT22;42408;53.238;5.686;2022-12-07T16:19:25;4.30;99.90
56512;DHT22;42408;53.238;5.686;2022-12-07T16:21:50;4.30;99.90
56512;DHT22;42408;53.238;5.686;2022-12-07T16:24:16;4.90;99.90
56512;DHT22;42408;53.238;5.686;2022-12-07T16:26:42;4.30;99.90
56512;DHT22;42408;53.238;5.686;2022-12-07T16:29:10;5.20;99.90
56512;DHT22;42408;53.238;5.686;2022-12-07T16:31:36;4.30;99.90
56512;DHT22;42408;53.238;5.686;2022-12-07T16:34:01;4.30;99.90
56512;DHT22;42408;53.238;5.686;2022-12-07T16:36:27;4.70;99.90
56512;DHT22;42408;53.238;5.686;2022-12-07T16:38:52;4.30;99.90
56512;DHT22;42408;53.238;5.686;2022-12-07T16:41:18;4.50;99.90
56512;DHT22;42408;53.238;5.686;2022-12-07T16:43:44;4.30;99.90
56512;DHT22;42408;53.238;5.686;2022-12-07T16:46:10;4.30;99.90
56512;DHT22;42408;53.238;5.686;2022-12-07T16:48:39;4.30;99.90
56512;DHT22;42408;53.238;5.686;2022-12-07T16:51:05;4.40;99.90
56512;DHT22;42408;53.238;5.686;2022-12-07T16:53:31;4.40;99.90
56512;DHT22;42408;53.238;5.686;2022-12-07T16:55:56;5.10;99.90
56512;DHT22;42408;53.238;5.686;2022-12-07T16:58:22;4.50;99.90
56512;DHT22;42408;53.238;5.686;2022-12-07T17:00:47;4.50;99.90
56512;DHT22;42408;53.238;5.686;2022-12-07T17:03:13;4.50;99.90
56512;DHT22;42408;53.238;5.686;2022-12-07T17:05:43;4.40;99.90
56512;DHT22;42408;53.238;5.686;2022-12-07T17:08:09;4.40;99.90
56512;DHT22;42408;53.238;5.686;2022-12-07T17:10:35;4.40;99.90
56512;DHT22;42408;53.238;5.686;2022-12-07T17:13:02;4.40;99.90
56512;DHT22;42408;53.238;5.686;2022-12-07T17:15:28;4.40;99.90
56512;DHT22;42408;53.238;5.686;2022-12-07T17:17:54;4.40;99.90
56512;DHT22;42408;53.238;5.686;2022-12-07T17:20:21;4.30;99.90
56512;DHT22;42408;53.238;5.686;2022-12-07T17:22:47;4.30;99.90
56512;DHT22;42408;53.238;5.686;2022-12-07T17:25:12;4.20;99.90
56512;DHT22;42408;53.238;5.686;2022-12-07T17:27:38;4.20;99.90
56512;DHT22;42408;53.238;5.686;2022-12-07T17:30:04;4.30;99.90
56512;DHT22;42408;53.238;5.686;2022-12-07T17:32:30;4.10;99.90
56512;DHT22;42408;53.238;5.686;2022-12-07T17:34:55;4.10;99.90
56512;DHT22;42408;53.238;5.686;2022-12-07T17:37:21;5.00;99.90
56512;DHT22;42408;53.238;5.686;2022-12-07T17:39:46;4.00;99.90
56512;DHT22;42408;53.238;5.686;2022-12-07T17:42:12;4.00;99.90
56512;DHT22;42408;53.238;5.686;2022-12-07T17:44:56;4.10;99.90
56512;DHT22;42408;53.238;5.686;2022-12-07T17:47:22;3.90;99.90
56512;DHT22;42408;53.238;5.686;2022-12-07T17:49:47;3.90;99.90
56512;DHT22;42408;53.238;5.686;2022-12-07T17:52:13;3.90;99.90
56512;DHT22;42408;53.238;5.686;2022-12-07T17:54:57;3.90;99.90
56512;DHT22;42408;53.238;5.686;2022-12-07T17:57:23;3.90;99.90
56512;DHT22;42408;53.238;5.686;2022-12-07T17:59:48;4.40;99.90
56512;DHT22;42408;53.238;5.686;2022-12-07T18:02:15;3.80;99.90
56512;DHT22;42408;53.238;5.686;2022-12-07T18:04:41;3.90;99.90